sensor_id;sensor_type;location;lat;lon;timestamp;P1;durP1;ratioP1;P2;durP2;ratioP2
1048;SDS011;513;51.444;7.196;2023-01-15T13:09:14;3.50;;;0.83;;
1048;SDS011;513;51.444;7.196;2023-01-15T13:11:48;2.70;;;0.82;;
1048;SDS011;513;51.444;7.196;2023-01-15T13:14:15;2.90;;;1.10;;
1048;SDS011;513;51.444;7.196;2023-01-15T13:16:45;4.40;;;1.30;;
1048;SDS011;513;51.444;7.196;2023-01-15T13:19:22;4.63;;;1.00;;
1048;SDS011;513;51.444;7.196;2023-01-15T13:21:57;3.83;;;0.98;;
1048;SDS011;513;51.444;7.196;2023-01-15T13:24:36;4.10;;;1.00;;
1048;SDS011;513;51.444;7.196;2023-01-15T13:27:23;1.90;;;0.80;;
1048;SDS011;513;51.444;7.196;2023-01-15T13:30:03;3.53;;;1.10;;
1048;SDS011;513;51.444;7.196;2023-01-15T13:32:42;4.78;;;0.90;;
1048;SDS011;513;51.444;7.196;2023-01-15T13:35:13;3.28;;;0.85;;
1048;SDS011;513;51.444;7.196;2023-01-15T13:37:51;4.03;;;0.90;;
1048;SDS011;513;51.444;7.196;2023-01-15T13:40:21;3.10;;;0.85;;
1048;SDS011;513;51.444;7.196;2023-01-15T13:42:51;4.68;;;1.10;;
1048;SDS011;513;51.444;7.196;2023-01-15T13:45:23;2.97;;;0.80;;
1048;SDS011;513;51.444;7.196;2023-01-15T13:48:03;5.45;;;1.05;;
1048;SDS011;513;51.444;7.196;2023-01-15T13:50:34;3.30;;;0.90;;
1048;SDS011;513;51.444;7.196;2023-01-15T13:53:04;4.28;;;0.93;;
1048;SDS011;513;51.444;7.196;2023-01-15T13:55:33;4.53;;;1.20;;
1048;SDS011;513;51.444;7.196;2023-01-15T13:58:02;3.35;;;1.00;;
1048;SDS011;513;51.444;7.196;2023-01-15T14:00:41;6.85;;;1.10;;
1048;SDS011;513;51.444;7.196;2023-01-15T14:05:55;3.67;;;0.93;;
1048;SDS011;513;51.444;7.196;2023-01-15T14:08:24;4.43;;;1.20;;
1048;SDS011;513;51.444;7.196;2023-01-15T14:10:53;3.07;;;1.00;;
1048;SDS011;513;51.444;7.196;2023-01-15T14:13:34;4.88;;;1.08;;
1048;SDS011;513;51.444;7.196;2023-01-15T15:25:18;3.42;;;0.98;;
1048;SDS011;513;51.444;7.196;2023-01-15T15:27:47;2.75;;;0.95;;
1048;SDS011;513;51.444;7.196;2023-01-15T17:38:24;2.85;;;1.10;;
1048;SDS011;513;51.444;7.196;2023-01-15T17:40:51;5.75;;;1.38;;
1048;SDS011;513;51.444;7.196;2023-01-15T17:43:21;4.28;;;1.20;;
1048;SDS011;513;51.444;7.196;2023-01-15T17:45:48;5.05;;;1.20;;
1048;SDS011;513;51.444;7.196;2023-01-15T17:48:14;5.25;;;1.40;;
1048;SDS011;513;51.444;7.196;2023-01-15T17:50:43;4.28;;;1.10;;
1048;SDS011;513;51.444;7.196;2023-01-15T17:53:10;2.85;;;1.13;;
1048;SDS011;513;51.444;7.196;2023-01-15T17:55:37;3.50;;;1.45;;
1048;SDS011;513;51.444;7.196;2023-01-15T17:58:22;3.97;;;1.23;;
1048;SDS011;513;51.444;7.196;2023-01-15T18:01:10;3.75;;;1.15;;
1048;SDS011;513;51.444;7.196;2023-01-15T18:03:59;4.55;;;1.30;;
1048;SDS011;513;51.444;7.196;2023-01-15T18:06:46;3.23;;;1.30;;
1048;SDS011;513;51.444;7.196;2023-01-15T18:09:16;4.25;;;1.40;;
1048;SDS011;513;51.444;7.196;2023-01-15T18:11:45;3.47;;;1.50;;
1048;SDS011;513;51.444;7.196;2023-01-15T18:14:12;4.40;;;1.55;;
1048;SDS011;513;51.444;7.196;2023-01-15T18:16:39;3.53;;;1.40;;
1048;SDS011;513;51.444;7.196;2023-01-15T18:19:05;3.90;;;1.23;;
1048;SDS011;513;51.444;7.196;2023-01-15T18:21:35;4.32;;;1.60;;
1048;SDS011;513;51.444;7.196;2023-01-15T18:24:04;4.15;;;1.33;;
1048;SDS011;513;51.444;7.196;2023-01-15T18:26:33;7.35;;;1.50;;
1048;SDS011;513;51.444;7.196;2023-01-15T18:29:01;3.80;;;1.20;;
1048;SDS011;513;51.444;7.196;2023-01-15T18:31:28;2.75;;;1.08;;
1048;SDS011;513;51.444;7.196;2023-01-15T18:33:54;3.40;;;1.38;;
1048;SDS011;513;51.444;7.196;2023-01-15T18:36:21;3.38;;;1.27;;
1048;SDS011;513;51.444;7.196;2023-01-15T18:38:48;3.47;;;1.23;;
1048;SDS011;513;51.444;7.196;2023-01-15T18:41:17;5.00;;;1.42;;
1048;SDS011;513;51.444;7.196;2023-01-15T18:43:59;4.88;;;1.65;;
1048;SDS011;513;51.444;7.196;2023-01-15T18:46:44;5.13;;;2.30;;
1048;SDS011;513;51.444;7.196;2023-01-15T18:49:13;4.60;;;1.50;;
1048;SDS011;513;51.444;7.196;2023-01-15T18:51:40;6.13;;;1.30;;
1048;SDS011;513;51.444;7.196;2023-01-15T18:54:07;2.90;;;1.40;;
1048;SDS011;513;51.444;7.196;2023-01-15T18:56:37;5.60;;;1.50;;
1048;SDS011;513;51.444;7.196;2023-01-15T18:59:04;4.00;;;1.38;;
1048;SDS011;513;51.444;7.196;2023-01-15T19:01:32;4.70;;;1.50;;
1048;SDS011;513;51.444;7.196;2023-01-15T19:03:59;3.78;;;1.75;;
1048;SDS011;513;51.444;7.196;2023-01-15T19:06:26;4.40;;;1.75;;
1048;SDS011;513;51.444;7.196;2023-01-15T19:08:53;5.60;;;1.55;;
1048;SDS011;513;51.444;7.196;2023-01-15T19:11:20;3.72;;;1.80;;
1048;SDS011;513;51.444;7.196;2023-01-15T19:13:48;5.40;;;1.50;;
1048;SDS011;513;51.444;7.196;2023-01-15T19:16:34;3.70;;;1.87;;
1048;SDS011;513;51.444;7.196;2023-01-15T19:19:19;4.82;;;1.73;;
1048;SDS011;513;51.444;7.196;2023-01-15T19:21:46;6.47;;;2.00;;
1048;SDS011;513;51.444;7.196;2023-01-15T19:24:32;5.22;;;1.95;;
1048;SDS011;513;51.444;7.196;2023-01-15T19:27:00;4.28;;;1.60;;
1048;SDS011;513;51.444;7.196;2023-01-15T19:29:28;4.83;;;1.80;;
1048;SDS011;513;51.444;7.196;2023-01-15T19:31:55;4.72;;;1.70;;
1048;SDS011;513;51.444;7.196;2023-01-15T19:34:22;3.63;;;1.83;;
1048;SDS011;513;51.444;7.196;2023-01-15T19:36:49;5.95;;;1.70;;
1048;SDS011;513;51.444;7.196;2023-01-15T19:39:16;3.78;;;1.70;;
1048;SDS011;513;51.444;7.196;2023-01-15T19:41:42;4.32;;;1.77;;
1048;SDS011;513;51.444;7.196;2023-01-15T19:44:28;4.78;;;1.50;;
1048;SDS011;513;51.444;7.196;2023-01-15T19:47:12;2.80;;;1.30;;
1048;SDS011;513;51.444;7.196;2023-01-15T19:49:58;4.13;;;1.75;;
1048;SDS011;513;51.444;7.196;2023-01-15T19:52:43;6.40;;;1.90;;
1048;SDS011;513;51.444;7.196;2023-01-15T19:55:11;6.43;;;1.57;;
1048;SDS011;513;51.444;7.196;2023-01-15T19:57:39;3.25;;;1.38;;
1048;SDS011;513;51.444;7.196;2023-01-15T20:00:09;5.13;;;1.73;;
1048;SDS011;513;51.444;7.196;2023-01-15T20:02:38;5.20;;;1.48;;
1048;SDS011;513;51.444;7.196;2023-01-15T20:05:06;3.90;;;1.40;;
1048;SDS011;513;51.444;7.196;2023-01-15T20:07:33;5.03;;;1.52;;
1048;SDS011;513;51.444;7.196;2023-01-15T20:10:00;5.03;;;1.50;;
1048;SDS011;513;51.444;7.196;2023-01-15T20:12:27;4.40;;;1.40;;
1048;SDS011;513;51.444;7.196;2023-01-15T20:15:13;4.10;;;1.52;;
1048;SDS011;513;51.444;7.196;2023-01-15T20:17:40;3.92;;;1.73;;
1048;SDS011;513;51.444;7.196;2023-01-15T20:20:08;5.70;;;1.63;;
1048;SDS011;513;51.444;7.196;2023-01-15T20:22:36;4.47;;;1.38;;
1048;SDS011;513;51.444;7.196;2023-01-15T20:25:02;3.75;;;1.25;;
1048;SDS011;513;51.444;7.196;2023-01-15T20:27:30;5.00;;;1.40;;
1048;SDS011;513;51.444;7.196;2023-01-15T20:29:59;4.05;;;1.30;;
1048;SDS011;513;51.444;7.196;2023-01-15T20:32:28;5.95;;;1.38;;
1048;SDS011;513;51.444;7.196;2023-01-15T20:34:55;5.78;;;1.52;;
1048;SDS011;513;51.444;7.196;2023-01-15T20:37:22;4.40;;;1.30;;
1048;SDS011;513;51.444;7.196;2023-01-15T20:39:49;5.13;;;1.60;;
1048;SDS011;513;51.444;7.196;2023-01-15T20:42:16;4.50;;;1.65;;
1048;SDS011;513;51.444;7.196;2023-01-15T20:45:01;4.32;;;1.52;;
1048;SDS011;513;51.444;7.196;2023-01-15T20:47:33;5.40;;;1.50;;
1048;SDS011;513;51.444;7.196;2023-01-15T20:50:17;4.78;;;1.40;;
1048;SDS011;513;51.444;7.196;2023-01-15T20:52:45;4.97;;;1.30;;
1048;SDS011;513;51.444;7.196;2023-01-15T20:55:13;4.80;;;1.70;;
1048;SDS011;513;51.444;7.196;2023-01-15T20:57:40;3.92;;;1.55;;
1048;SDS011;513;51.444;7.196;2023-01-15T21:00:08;8.35;;;1.70;;
1048;SDS011;513;51.444;7.196;2023-01-15T21:02:39;4.87;;;1.50;;
1048;SDS011;513;51.444;7.196;2023-01-15T21:05:06;4.23;;;1.50;;
1048;SDS011;513;51.444;7.196;2023-01-15T21:07:33;5.63;;;1.65;;
1048;SDS011;513;51.444;7.196;2023-01-15T21:10:01;4.90;;;1.83;;
1048;SDS011;513;51.444;7.196;2023-01-15T21:12:29;7.63;;;1.80;;
1048;SDS011;513;51.444;7.196;2023-01-15T21:14:55;6.40;;;1.58;;
1048;SDS011;513;51.444;7.196;2023-01-15T21:17:22;4.40;;;1.20;;
1048;SDS011;513;51.444;7.196;2023-01-15T21:19:50;5.50;;;1.53;;
1048;SDS011;513;51.444;7.196;2023-01-15T21:22:17;4.05;;;1.30;;
1048;SDS011;513;51.444;7.196;2023-01-15T21:24:43;4.65;;;1.50;;
1048;SDS011;513;51.444;7.196;2023-01-15T21:27:11;4.53;;;1.30;;
1048;SDS011;513;51.444;7.196;2023-01-15T21:29:38;4.30;;;1.48;;
1048;SDS011;513;51.444;7.196;2023-01-15T21:32:05;3.85;;;1.40;;
1048;SDS011;513;51.444;7.196;2023-01-15T21:34:32;6.55;;;1.45;;
1048;SDS011;513;51.444;7.196;2023-01-15T21:37:00;6.65;;;1.65;;
1048;SDS011;513;51.444;7.196;2023-01-15T21:39:27;4.57;;;1.70;;
1048;SDS011;513;51.444;7.196;2023-01-15T21:41:53;5.10;;;1.63;;
1048;SDS011;513;51.444;7.196;2023-01-15T21:44:38;5.65;;;1.58;;
1048;SDS011;513;51.444;7.196;2023-01-15T21:47:08;5.80;;;2.08;;
1048;SDS011;513;51.444;7.196;2023-01-15T21:49:37;4.70;;;1.77;;
1048;SDS011;513;51.444;7.196;2023-01-15T21:52:06;4.75;;;1.73;;
1048;SDS011;513;51.444;7.196;2023-01-15T21:54:34;5.80;;;2.00;;
1048;SDS011;513;51.444;7.196;2023-01-15T21:57:01;3.95;;;1.70;;
1048;SDS011;513;51.444;7.196;2023-01-15T21:59:27;7.13;;;2.08;;
1048;SDS011;513;51.444;7.196;2023-01-15T22:01:54;6.00;;;2.05;;
1048;SDS011;513;51.444;7.196;2023-01-15T22:04:23;6.25;;;1.95;;
1048;SDS011;513;51.444;7.196;2023-01-15T22:06:51;3.35;;;1.63;;
1048;SDS011;513;51.444;7.196;2023-01-15T22:09:19;5.53;;;2.10;;
1048;SDS011;513;51.444;7.196;2023-01-15T22:11:47;3.88;;;1.90;;
1048;SDS011;513;51.444;7.196;2023-01-15T22:14:16;6.60;;;2.40;;
1048;SDS011;513;51.444;7.196;2023-01-15T22:16:44;5.07;;;1.90;;
1048;SDS011;513;51.444;7.196;2023-01-15T22:19:12;4.68;;;1.80;;
1048;SDS011;513;51.444;7.196;2023-01-15T22:21:43;4.47;;;1.97;;
1048;SDS011;513;51.444;7.196;2023-01-15T22:24:10;6.88;;;2.50;;
1048;SDS011;513;51.444;7.196;2023-01-15T22:26:38;4.72;;;2.10;;
1048;SDS011;513;51.444;7.196;2023-01-15T22:29:07;6.45;;;2.40;;
1048;SDS011;513;51.444;7.196;2023-01-15T22:31:37;8.63;;;2.30;;
1048;SDS011;513;51.444;7.196;2023-01-15T22:34:04;5.22;;;2.13;;
1048;SDS011;513;51.444;7.196;2023-01-15T22:36:30;7.13;;;1.90;;
1048;SDS011;513;51.444;7.196;2023-01-15T22:38:57;4.97;;;2.08;;
1048;SDS011;513;51.444;7.196;2023-01-15T22:41:24;7.35;;;2.10;;
1048;SDS011;513;51.444;7.196;2023-01-15T22:44:06;5.93;;;2.30;;
1048;SDS011;513;51.444;7.196;2023-01-15T22:46:34;6.93;;;2.35;;
1048;SDS011;513;51.444;7.196;2023-01-15T22:49:02;5.40;;;2.25;;
1048;SDS011;513;51.444;7.196;2023-01-15T22:51:29;7.55;;;2.10;;
1048;SDS011;513;51.444;7.196;2023-01-15T22:53:56;5.03;;;2.10;;
1048;SDS011;513;51.444;7.196;2023-01-15T22:56:23;5.25;;;1.90;;
1048;SDS011;513;51.444;7.196;2023-01-15T22:58:51;5.28;;;1.80;;
1048;SDS011;513;51.444;7.196;2023-01-15T23:01:20;6.73;;;2.40;;
1048;SDS011;513;51.444;7.196;2023-01-15T23:03:47;5.53;;;1.90;;
1048;SDS011;513;51.444;7.196;2023-01-15T23:06:13;7.13;;;2.08;;
1048;SDS011;513;51.444;7.196;2023-01-15T23:08:43;4.72;;;1.98;;
1048;SDS011;513;51.444;7.196;2023-01-15T23:11:10;8.20;;;2.03;;
1048;SDS011;513;51.444;7.196;2023-01-15T23:13:38;8.68;;;2.03;;
1048;SDS011;513;51.444;7.196;2023-01-15T23:16:06;5.53;;;1.90;;
1048;SDS011;513;51.444;7.196;2023-01-15T23:18:34;5.63;;;1.67;;
1048;SDS011;513;51.444;7.196;2023-01-15T23:21:02;6.03;;;1.98;;
1048;SDS011;513;51.444;7.196;2023-01-15T23:23:29;6.82;;;1.70;;
1048;SDS011;513;51.444;7.196;2023-01-15T23:25:58;6.28;;;2.08;;
1048;SDS011;513;51.444;7.196;2023-01-15T23:28:25;5.80;;;2.17;;
1048;SDS011;513;51.444;7.196;2023-01-15T23:30:52;5.85;;;1.85;;
1048;SDS011;513;51.444;7.196;2023-01-15T23:33:19;4.60;;;1.77;;
1048;SDS011;513;51.444;7.196;2023-01-15T23:35:47;5.07;;;1.40;;
1048;SDS011;513;51.444;7.196;2023-01-15T23:38:14;5.25;;;1.60;;
1048;SDS011;513;51.444;7.196;2023-01-15T23:40:41;5.07;;;1.70;;
1048;SDS011;513;51.444;7.196;2023-01-15T23:43:08;5.10;;;1.63;;
1048;SDS011;513;51.444;7.196;2023-01-15T23:45:52;5.47;;;1.67;;
1048;SDS011;513;51.444;7.196;2023-01-15T23:48:37;5.28;;;1.70;;
1048;SDS011;513;51.444;7.196;2023-01-15T23:51:05;4.22;;;1.50;;
1048;SDS011;513;51.444;7.196;2023-01-15T23:53:32;5.18;;;1.63;;
1048;SDS011;513;51.444;7.196;2023-01-15T23:55:59;5.37;;;1.60;;
1048;SDS011;513;51.444;7.196;2023-01-15T23:58:26;5.95;;;1.90;;
